sensor_id;sensor_type;location;lat;lon;timestamp;P1;durP1;ratioP1;P2;durP2;ratioP2
70588;SDS011;58152;49.202;18.744;2023-07-16T00:00:27;5.00;;;4.10;;
70588;SDS011;58152;49.202;18.744;2023-07-16T00:02:53;4.68;;;3.83;;
70588;SDS011;58152;49.202;18.744;2023-07-16T00:05:18;4.60;;;4.18;;
70588;SDS011;58152;49.202;18.744;2023-07-16T00:07:44;4.60;;;4.20;;
70588;SDS011;58152;49.202;18.744;2023-07-16T00:10:09;5.22;;;3.63;;
70588;SDS011;58152;49.202;18.744;2023-07-16T00:12:35;4.25;;;3.88;;
70588;SDS011;58152;49.202;18.744;2023-07-16T00:15:00;5.00;;;4.20;;
70588;SDS011;58152;49.202;18.744;2023-07-16T00:17:25;5.88;;;5.30;;
70588;SDS011;58152;49.202;18.744;2023-07-16T00:19:51;7.18;;;6.47;;
70588;SDS011;58152;49.202;18.744;2023-07-16T00:22:16;5.97;;;5.20;;
70588;SDS011;58152;49.202;18.744;2023-07-16T00:24:42;5.50;;;5.00;;
70588;SDS011;58152;49.202;18.744;2023-07-16T00:27:07;5.18;;;4.63;;
70588;SDS011;58152;49.202;18.744;2023-07-16T00:29:32;4.95;;;4.55;;
70588;SDS011;58152;49.202;18.744;2023-07-16T00:31:58;3.80;;;3.45;;
70588;SDS011;58152;49.202;18.744;2023-07-16T00:34:23;4.13;;;3.70;;
70588;SDS011;58152;49.202;18.744;2023-07-16T00:36:50;4.57;;;4.18;;
70588;SDS011;58152;49.202;18.744;2023-07-16T00:39:15;4.22;;;3.88;;
70588;SDS011;58152;49.202;18.744;2023-07-16T00:41:41;3.88;;;3.58;;
70588;SDS011;58152;49.202;18.744;2023-07-16T00:44:06;4.80;;;4.35;;
70588;SDS011;58152;49.202;18.744;2023-07-16T00:46:32;4.32;;;3.72;;
70588;SDS011;58152;49.202;18.744;2023-07-16T00:48:57;4.43;;;4.03;;
70588;SDS011;58152;49.202;18.744;2023-07-16T00:51:24;3.92;;;3.63;;
70588;SDS011;58152;49.202;18.744;2023-07-16T00:53:50;4.43;;;3.90;;
70588;SDS011;58152;49.202;18.744;2023-07-16T00:56:16;4.25;;;3.85;;
70588;SDS011;58152;49.202;18.744;2023-07-16T00:58:45;4.55;;;4.15;;
70588;SDS011;58152;49.202;18.744;2023-07-16T01:01:11;4.50;;;4.10;;
70588;SDS011;58152;49.202;18.744;2023-07-16T01:03:36;5.00;;;4.60;;
70588;SDS011;58152;49.202;18.744;2023-07-16T01:08:45;4.55;;;4.13;;
70588;SDS011;58152;49.202;18.744;2023-07-16T01:11:13;4.63;;;4.20;;
70588;SDS011;58152;49.202;18.744;2023-07-16T01:13:40;4.97;;;4.40;;
70588;SDS011;58152;49.202;18.744;2023-07-16T01:16:17;5.30;;;4.80;;
70588;SDS011;58152;49.202;18.744;2023-07-16T01:18:46;4.28;;;3.88;;
70588;SDS011;58152;49.202;18.744;2023-07-16T01:21:12;5.35;;;4.28;;
70588;SDS011;58152;49.202;18.744;2023-07-16T01:31:40;4.65;;;4.22;;
70588;SDS011;58152;49.202;18.744;2023-07-16T01:34:06;4.90;;;4.50;;
70588;SDS011;58152;49.202;18.744;2023-07-16T01:36:32;4.32;;;4.00;;
70588;SDS011;58152;49.202;18.744;2023-07-16T01:38:59;3.80;;;3.50;;
70588;SDS011;58152;49.202;18.744;2023-07-16T01:41:25;4.47;;;4.07;;
70588;SDS011;58152;49.202;18.744;2023-07-16T01:43:50;4.03;;;3.72;;
70588;SDS011;58152;49.202;18.744;2023-07-16T01:46:16;3.80;;;3.47;;
70588;SDS011;58152;49.202;18.744;2023-07-16T01:48:42;4.65;;;4.15;;
70588;SDS011;58152;49.202;18.744;2023-07-16T01:51:08;4.05;;;3.75;;
70588;SDS011;58152;49.202;18.744;2023-07-16T01:53:34;4.70;;;4.25;;
70588;SDS011;58152;49.202;18.744;2023-07-16T01:56:00;4.63;;;3.95;;
70588;SDS011;58152;49.202;18.744;2023-07-16T01:58:27;3.88;;;3.58;;
70588;SDS011;58152;49.202;18.744;2023-07-16T02:00:52;4.80;;;4.40;;
70588;SDS011;58152;49.202;18.744;2023-07-16T02:03:18;4.40;;;4.00;;
70588;SDS011;58152;49.202;18.744;2023-07-16T02:05:43;4.43;;;4.03;;
70588;SDS011;58152;49.202;18.744;2023-07-16T02:08:09;5.65;;;4.65;;
70588;SDS011;58152;49.202;18.744;2023-07-16T02:10:34;4.10;;;3.80;;
70588;SDS011;58152;49.202;18.744;2023-07-16T02:12:59;4.22;;;3.88;;
70588;SDS011;58152;49.202;18.744;2023-07-16T02:15:25;4.40;;;4.00;;
70588;SDS011;58152;49.202;18.744;2023-07-16T02:17:50;5.10;;;4.60;;
70588;SDS011;58152;49.202;18.744;2023-07-16T02:20:16;4.88;;;4.25;;
70588;SDS011;58152;49.202;18.744;2023-07-16T02:22:41;4.55;;;4.15;;
70588;SDS011;58152;49.202;18.744;2023-07-16T02:25:07;4.80;;;4.25;;
70588;SDS011;58152;49.202;18.744;2023-07-16T02:27:32;4.70;;;4.30;;
70588;SDS011;58152;49.202;18.744;2023-07-16T02:29:58;4.95;;;4.45;;
70588;SDS011;58152;49.202;18.744;2023-07-16T02:32:23;4.57;;;4.18;;
70588;SDS011;58152;49.202;18.744;2023-07-16T02:34:48;4.55;;;4.05;;
70588;SDS011;58152;49.202;18.744;2023-07-16T02:37:14;5.15;;;4.65;;
70588;SDS011;58152;49.202;18.744;2023-07-16T02:39:40;4.38;;;4.05;;
70588;SDS011;58152;49.202;18.744;2023-07-16T02:42:07;4.55;;;4.15;;
70588;SDS011;58152;49.202;18.744;2023-07-16T02:44:33;4.22;;;3.92;;
70588;SDS011;58152;49.202;18.744;2023-07-16T02:46:59;4.32;;;3.92;;
70588;SDS011;58152;49.202;18.744;2023-07-16T02:49:24;6.68;;;4.53;;
70588;SDS011;58152;49.202;18.744;2023-07-16T02:51:49;5.07;;;4.68;;
70588;SDS011;58152;49.202;18.744;2023-07-16T02:54:15;4.80;;;4.05;;
70588;SDS011;58152;49.202;18.744;2023-07-16T02:56:40;4.38;;;3.97;;
70588;SDS011;58152;49.202;18.744;2023-07-16T02:59:06;4.70;;;4.15;;
70588;SDS011;58152;49.202;18.744;2023-07-16T03:01:31;4.50;;;4.10;;
70588;SDS011;58152;49.202;18.744;2023-07-16T03:03:56;4.82;;;4.38;;
70588;SDS011;58152;49.202;18.744;2023-07-16T03:06:22;4.53;;;4.13;;
70588;SDS011;58152;49.202;18.744;2023-07-16T03:08:47;4.95;;;4.53;;
70588;SDS011;58152;49.202;18.744;2023-07-16T03:11:13;4.88;;;4.50;;
70588;SDS011;58152;49.202;18.744;2023-07-16T03:13:39;5.13;;;4.60;;
70588;SDS011;58152;49.202;18.744;2023-07-16T03:16:04;5.07;;;4.65;;
70588;SDS011;58152;49.202;18.744;2023-07-16T03:18:29;5.45;;;4.95;;
70588;SDS011;58152;49.202;18.744;2023-07-16T03:20:56;4.22;;;3.92;;
70588;SDS011;58152;49.202;18.744;2023-07-16T03:23:22;5.90;;;4.70;;
70588;SDS011;58152;49.202;18.744;2023-07-16T03:25:48;5.65;;;5.15;;
70588;SDS011;58152;49.202;18.744;2023-07-16T03:28:14;4.35;;;3.95;;
70588;SDS011;58152;49.202;18.744;2023-07-16T03:30:39;6.68;;;4.82;;
70588;SDS011;58152;49.202;18.744;2023-07-16T03:33:05;5.10;;;4.60;;
70588;SDS011;58152;49.202;18.744;2023-07-16T03:35:30;5.10;;;4.60;;
70588;SDS011;58152;49.202;18.744;2023-07-16T03:37:56;5.25;;;4.43;;
70588;SDS011;58152;49.202;18.744;2023-07-16T03:40:25;5.22;;;4.72;;
70588;SDS011;58152;49.202;18.744;2023-07-16T03:42:51;5.03;;;4.63;;
70588;SDS011;58152;49.202;18.744;2023-07-16T03:45:17;5.82;;;4.82;;
70588;SDS011;58152;49.202;18.744;2023-07-16T03:47:43;4.95;;;4.50;;
70588;SDS011;58152;49.202;18.744;2023-07-16T03:50:09;5.75;;;5.25;;
70588;SDS011;58152;49.202;18.744;2023-07-16T03:52:34;4.57;;;3.92;;
70588;SDS011;58152;49.202;18.744;2023-07-16T03:55:00;4.45;;;4.07;;
70588;SDS011;58152;49.202;18.744;2023-07-16T03:57:27;4.95;;;4.47;;
70588;SDS011;58152;49.202;18.744;2023-07-16T03:59:53;5.63;;;5.05;;
70588;SDS011;58152;49.202;18.744;2023-07-16T04:02:19;5.00;;;4.60;;
70588;SDS011;58152;49.202;18.744;2023-07-16T04:04:44;5.30;;;4.90;;
70588;SDS011;58152;49.202;18.744;2023-07-16T04:07:09;5.07;;;4.68;;
70588;SDS011;58152;49.202;18.744;2023-07-16T04:09:38;5.57;;;5.00;;
70588;SDS011;58152;49.202;18.744;2023-07-16T04:12:04;5.28;;;4.68;;
70588;SDS011;58152;49.202;18.744;2023-07-16T04:14:30;5.95;;;4.75;;
70588;SDS011;58152;49.202;18.744;2023-07-16T04:16:56;5.72;;;4.78;;
70588;SDS011;58152;49.202;18.744;2023-07-16T04:19:21;5.20;;;4.75;;
70588;SDS011;58152;49.202;18.744;2023-07-16T04:21:47;5.25;;;4.85;;
70588;SDS011;58152;49.202;18.744;2023-07-16T04:24:12;5.55;;;5.05;;
70588;SDS011;58152;49.202;18.744;2023-07-16T04:26:37;6.30;;;5.75;;
70588;SDS011;58152;49.202;18.744;2023-07-16T04:29:03;5.18;;;4.70;;
70588;SDS011;58152;49.202;18.744;2023-07-16T04:31:28;5.30;;;4.90;;
70588;SDS011;58152;49.202;18.744;2023-07-16T04:33:56;5.57;;;5.18;;
70588;SDS011;58152;49.202;18.744;2023-07-16T04:36:22;5.65;;;5.15;;
70588;SDS011;58152;49.202;18.744;2023-07-16T04:38:47;5.80;;;5.22;;
70588;SDS011;58152;49.202;18.744;2023-07-16T04:41:13;5.40;;;4.53;;
70588;SDS011;58152;49.202;18.744;2023-07-16T04:43:38;5.65;;;5.15;;
70588;SDS011;58152;49.202;18.744;2023-07-16T04:46:04;6.00;;;4.50;;
70588;SDS011;58152;49.202;18.744;2023-07-16T04:48:30;5.28;;;4.88;;
70588;SDS011;58152;49.202;18.744;2023-07-16T04:50:55;8.88;;;5.30;;
70588;SDS011;58152;49.202;18.744;2023-07-16T04:53:21;5.15;;;4.75;;
70588;SDS011;58152;49.202;18.744;2023-07-16T04:55:47;5.85;;;5.35;;
70588;SDS011;58152;49.202;18.744;2023-07-16T04:58:13;6.07;;;5.43;;
70588;SDS011;58152;49.202;18.744;2023-07-16T05:00:38;6.25;;;5.75;;
70588;SDS011;58152;49.202;18.744;2023-07-16T05:03:04;6.70;;;5.85;;
70588;SDS011;58152;49.202;18.744;2023-07-16T05:05:29;5.82;;;5.30;;
70588;SDS011;58152;49.202;18.744;2023-07-16T05:07:55;7.65;;;5.93;;
70588;SDS011;58152;49.202;18.744;2023-07-16T05:10:20;10.38;;;7.20;;
70588;SDS011;58152;49.202;18.744;2023-07-16T05:12:46;6.15;;;5.55;;
70588;SDS011;58152;49.202;18.744;2023-07-16T05:15:11;6.55;;;5.82;;
70588;SDS011;58152;49.202;18.744;2023-07-16T05:17:37;6.82;;;5.78;;
70588;SDS011;58152;49.202;18.744;2023-07-16T05:20:02;6.47;;;5.95;;
70588;SDS011;58152;49.202;18.744;2023-07-16T05:22:29;6.75;;;5.95;;
70588;SDS011;58152;49.202;18.744;2023-07-16T05:24:55;6.68;;;6.07;;
70588;SDS011;58152;49.202;18.744;2023-07-16T05:27:20;6.63;;;6.03;;
70588;SDS011;58152;49.202;18.744;2023-07-16T05:29:45;8.07;;;7.28;;
70588;SDS011;58152;49.202;18.744;2023-07-16T05:32:11;6.78;;;6.18;;
70588;SDS011;58152;49.202;18.744;2023-07-16T05:34:36;6.45;;;5.53;;
70588;SDS011;58152;49.202;18.744;2023-07-16T05:37:02;6.35;;;5.75;;
70588;SDS011;58152;49.202;18.744;2023-07-16T05:39:27;6.15;;;5.65;;
70588;SDS011;58152;49.202;18.744;2023-07-16T05:41:53;6.45;;;5.95;;
70588;SDS011;58152;49.202;18.744;2023-07-16T05:44:18;5.85;;;5.35;;
70588;SDS011;58152;49.202;18.744;2023-07-16T05:46:45;6.43;;;5.80;;
70588;SDS011;58152;49.202;18.744;2023-07-16T05:49:10;7.03;;;6.38;;
70588;SDS011;58152;49.202;18.744;2023-07-16T05:51:36;6.38;;;5.88;;
70588;SDS011;58152;49.202;18.744;2023-07-16T05:54:01;6.18;;;5.68;;
70588;SDS011;58152;49.202;18.744;2023-07-16T05:56:27;5.97;;;5.47;;
70588;SDS011;58152;49.202;18.744;2023-07-16T05:58:53;6.55;;;6.00;;
70588;SDS011;58152;49.202;18.744;2023-07-16T06:01:18;6.25;;;5.75;;
70588;SDS011;58152;49.202;18.744;2023-07-16T06:03:44;5.72;;;5.32;;
70588;SDS011;58152;49.202;18.744;2023-07-16T06:06:09;5.63;;;5.18;;
70588;SDS011;58152;49.202;18.744;2023-07-16T06:08:35;6.03;;;5.40;;
70588;SDS011;58152;49.202;18.744;2023-07-16T06:11:00;5.72;;;5.20;;
70588;SDS011;58152;49.202;18.744;2023-07-16T06:13:26;5.72;;;5.22;;
70588;SDS011;58152;49.202;18.744;2023-07-16T06:15:51;5.32;;;4.82;;
70588;SDS011;58152;49.202;18.744;2023-07-16T06:18:17;4.82;;;4.43;;
70588;SDS011;58152;49.202;18.744;2023-07-16T06:20:45;4.88;;;4.40;;
70588;SDS011;58152;49.202;18.744;2023-07-16T06:23:13;7.43;;;4.88;;
70588;SDS011;58152;49.202;18.744;2023-07-16T06:25:41;5.60;;;4.72;;
70588;SDS011;58152;49.202;18.744;2023-07-16T06:28:09;5.57;;;5.07;;
70588;SDS011;58152;49.202;18.744;2023-07-16T06:30:34;5.18;;;4.68;;
70588;SDS011;58152;49.202;18.744;2023-07-16T06:33:00;6.47;;;5.47;;
70588;SDS011;58152;49.202;18.744;2023-07-16T06:35:25;15.27;;;11.35;;
70588;SDS011;58152;49.202;18.744;2023-07-16T06:37:51;10.07;;;9.07;;
70588;SDS011;58152;49.202;18.744;2023-07-16T06:40:16;7.78;;;7.00;;
70588;SDS011;58152;49.202;18.744;2023-07-16T06:42:42;5.88;;;5.28;;
70588;SDS011;58152;49.202;18.744;2023-07-16T06:45:07;4.30;;;3.70;;
70588;SDS011;58152;49.202;18.744;2023-07-16T06:47:33;3.95;;;3.55;;
70588;SDS011;58152;49.202;18.744;2023-07-16T06:49:58;4.90;;;4.50;;
70588;SDS011;58152;49.202;18.744;2023-07-16T06:52:24;5.07;;;4.38;;
70588;SDS011;58152;49.202;18.744;2023-07-16T06:54:52;5.90;;;4.20;;
70588;SDS011;58152;49.202;18.744;2023-07-16T06:57:18;4.57;;;3.78;;
70588;SDS011;58152;49.202;18.744;2023-07-16T06:59:43;3.63;;;3.33;;
70588;SDS011;58152;49.202;18.744;2023-07-16T07:02:09;3.75;;;3.42;;
70588;SDS011;58152;49.202;18.744;2023-07-16T07:04:35;4.18;;;3.33;;
70588;SDS011;58152;49.202;18.744;2023-07-16T07:07:00;3.85;;;3.55;;
70588;SDS011;58152;49.202;18.744;2023-07-16T07:09:28;5.70;;;3.83;;
70588;SDS011;58152;49.202;18.744;2023-07-16T07:11:54;3.60;;;2.97;;
70588;SDS011;58152;49.202;18.744;2023-07-16T07:14:19;3.40;;;3.10;;
70588;SDS011;58152;49.202;18.744;2023-07-16T07:16:45;4.32;;;3.13;;
70588;SDS011;58152;49.202;18.744;2023-07-16T07:19:10;3.80;;;2.83;;
70588;SDS011;58152;49.202;18.744;2023-07-16T07:21:35;5.10;;;3.17;;
70588;SDS011;58152;49.202;18.744;2023-07-16T07:24:01;4.60;;;3.33;;
70588;SDS011;58152;49.202;18.744;2023-07-16T07:26:27;4.72;;;2.58;;
70588;SDS011;58152;49.202;18.744;2023-07-16T07:28:52;2.42;;;2.17;;
70588;SDS011;58152;49.202;18.744;2023-07-16T07:31:18;4.70;;;2.78;;
70588;SDS011;58152;49.202;18.744;2023-07-16T07:33:43;3.15;;;2.70;;
70588;SDS011;58152;49.202;18.744;2023-07-16T07:36:09;2.53;;;2.33;;
70588;SDS011;58152;49.202;18.744;2023-07-16T07:38:34;3.35;;;2.47;;
70588;SDS011;58152;49.202;18.744;2023-07-16T07:41:00;3.30;;;3.00;;
70588;SDS011;58152;49.202;18.744;2023-07-16T07:43:25;3.17;;;2.88;;
70588;SDS011;58152;49.202;18.744;2023-07-16T07:45:51;3.13;;;2.67;;
70588;SDS011;58152;49.202;18.744;2023-07-16T07:48:17;3.28;;;2.97;;
70588;SDS011;58152;49.202;18.744;2023-07-16T07:50:43;4.55;;;3.38;;
70588;SDS011;58152;49.202;18.744;2023-07-16T07:53:08;3.15;;;2.75;;
70588;SDS011;58152;49.202;18.744;2023-07-16T07:55:34;5.72;;;3.17;;
70588;SDS011;58152;49.202;18.744;2023-07-16T07:58:02;3.50;;;3.17;;
70588;SDS011;58152;49.202;18.744;2023-07-16T08:00:27;4.20;;;3.42;;
70588;SDS011;58152;49.202;18.744;2023-07-16T08:02:53;4.28;;;2.95;;
70588;SDS011;58152;49.202;18.744;2023-07-16T08:05:18;5.18;;;2.97;;
70588;SDS011;58152;49.202;18.744;2023-07-16T08:07:44;3.63;;;3.33;;
70588;SDS011;58152;49.202;18.744;2023-07-16T08:10:09;3.67;;;3.47;;
70588;SDS011;58152;49.202;18.744;2023-07-16T08:12:35;4.63;;;4.10;;
70588;SDS011;58152;49.202;18.744;2023-07-16T08:15:00;4.68;;;4.15;;
70588;SDS011;58152;49.202;18.744;2023-07-16T08:17:26;3.83;;;3.53;;
70588;SDS011;58152;49.202;18.744;2023-07-16T08:19:51;3.97;;;3.67;;
70588;SDS011;58152;49.202;18.744;2023-07-16T08:22:17;4.57;;;4.05;;
70588;SDS011;58152;49.202;18.744;2023-07-16T08:24:42;5.57;;;4.97;;
70588;SDS011;58152;49.202;18.744;2023-07-16T08:27:07;4.90;;;4.40;;
70588;SDS011;58152;49.202;18.744;2023-07-16T08:29:36;4.50;;;4.10;;
70588;SDS011;58152;49.202;18.744;2023-07-16T08:32:01;5.30;;;4.80;;
70588;SDS011;58152;49.202;18.744;2023-07-16T08:34:28;5.18;;;4.78;;
70588;SDS011;58152;49.202;18.744;2023-07-16T08:36:53;6.25;;;5.65;;
70588;SDS011;58152;49.202;18.744;2023-07-16T08:39:18;6.95;;;6.35;;
70588;SDS011;58152;49.202;18.744;2023-07-16T08:41:45;6.97;;;6.30;;
70588;SDS011;58152;49.202;18.744;2023-07-16T08:44:11;7.43;;;6.47;;
70588;SDS011;58152;49.202;18.744;2023-07-16T08:46:37;7.07;;;6.45;;
70588;SDS011;58152;49.202;18.744;2023-07-16T08:49:05;7.05;;;6.45;;
70588;SDS011;58152;49.202;18.744;2023-07-16T08:51:32;6.25;;;5.78;;
70588;SDS011;58152;49.202;18.744;2023-07-16T08:53:59;6.70;;;6.10;;
70588;SDS011;58152;49.202;18.744;2023-07-16T08:56:24;6.75;;;6.25;;
70588;SDS011;58152;49.202;18.744;2023-07-16T08:58:50;6.65;;;6.15;;
70588;SDS011;58152;49.202;18.744;2023-07-16T09:01:20;6.13;;;5.63;;
70588;SDS011;58152;49.202;18.744;2023-07-16T09:03:46;7.50;;;6.90;;
70588;SDS011;58152;49.202;18.744;2023-07-16T09:06:11;6.85;;;6.25;;
70588;SDS011;58152;49.202;18.744;2023-07-16T09:08:37;9.55;;;8.50;;
70588;SDS011;58152;49.202;18.744;2023-07-16T09:11:02;7.93;;;7.35;;
70588;SDS011;58152;49.202;18.744;2023-07-16T09:13:28;8.02;;;7.32;;
70588;SDS011;58152;49.202;18.744;2023-07-16T09:15:55;7.45;;;6.78;;
70588;SDS011;58152;49.202;18.744;2023-07-16T09:18:22;8.13;;;7.43;;
70588;SDS011;58152;49.202;18.744;2023-07-16T09:20:53;7.35;;;6.85;;
70588;SDS011;58152;49.202;18.744;2023-07-16T09:23:20;9.52;;;7.22;;
70588;SDS011;58152;49.202;18.744;2023-07-16T09:25:45;7.55;;;6.97;;
70588;SDS011;58152;49.202;18.744;2023-07-16T09:28:11;7.35;;;6.70;;
70588;SDS011;58152;49.202;18.744;2023-07-16T09:30:37;7.60;;;7.00;;
70588;SDS011;58152;49.202;18.744;2023-07-16T09:33:19;7.72;;;7.13;;
70588;SDS011;58152;49.202;18.744;2023-07-16T09:35:49;8.25;;;7.63;;
70588;SDS011;58152;49.202;18.744;2023-07-16T09:38:16;8.18;;;7.55;;
70588;SDS011;58152;49.202;18.744;2023-07-16T09:40:42;8.10;;;7.50;;
70588;SDS011;58152;49.202;18.744;2023-07-16T09:43:08;8.65;;;7.85;;
70588;SDS011;58152;49.202;18.744;2023-07-16T09:45:34;8.82;;;8.00;;
70588;SDS011;58152;49.202;18.744;2023-07-16T09:48:00;8.65;;;7.88;;
70588;SDS011;58152;49.202;18.744;2023-07-16T09:50:29;8.55;;;7.85;;
70588;SDS011;58152;49.202;18.744;2023-07-16T09:53:01;8.25;;;7.43;;
70588;SDS011;58152;49.202;18.744;2023-07-16T09:55:49;8.77;;;8.07;;
70588;SDS011;58152;49.202;18.744;2023-07-16T09:58:18;9.10;;;8.35;;
70588;SDS011;58152;49.202;18.744;2023-07-16T10:00:45;9.48;;;8.70;;
70588;SDS011;58152;49.202;18.744;2023-07-16T10:03:12;8.80;;;8.07;;
70588;SDS011;58152;49.202;18.744;2023-07-16T10:05:40;9.57;;;8.77;;
70588;SDS011;58152;49.202;18.744;2023-07-16T10:08:14;8.93;;;8.23;;
70588;SDS011;58152;49.202;18.744;2023-07-16T10:10:42;9.95;;;8.93;;
70588;SDS011;58152;49.202;18.744;2023-07-16T10:13:11;10.43;;;9.55;;
70588;SDS011;58152;49.202;18.744;2023-07-16T10:15:38;10.43;;;9.52;;
70588;SDS011;58152;49.202;18.744;2023-07-16T10:18:05;9.68;;;8.88;;
70588;SDS011;58152;49.202;18.744;2023-07-16T10:20:34;10.05;;;9.30;;
70588;SDS011;58152;49.202;18.744;2023-07-16T10:23:11;10.15;;;9.30;;
70588;SDS011;58152;49.202;18.744;2023-07-16T10:25:57;10.02;;;9.23;;
70588;SDS011;58152;49.202;18.744;2023-07-16T10:28:23;9.30;;;8.60;;
70588;SDS011;58152;49.202;18.744;2023-07-16T10:31:02;10.27;;;9.48;;
70588;SDS011;58152;49.202;18.744;2023-07-16T10:33:30;9.68;;;8.95;;
70588;SDS011;58152;49.202;18.744;2023-07-16T10:35:56;10.68;;;9.65;;
70588;SDS011;58152;49.202;18.744;2023-07-16T10:38:25;9.93;;;9.18;;
70588;SDS011;58152;49.202;18.744;2023-07-16T10:40:51;10.52;;;9.73;;
70588;SDS011;58152;49.202;18.744;2023-07-16T10:43:17;9.70;;;8.77;;
70588;SDS011;58152;49.202;18.744;2023-07-16T10:45:42;9.70;;;8.90;;
70588;SDS011;58152;49.202;18.744;2023-07-16T10:48:10;8.63;;;7.97;;
70588;SDS011;58152;49.202;18.744;2023-07-16T10:50:35;9.20;;;8.40;;
70588;SDS011;58152;49.202;18.744;2023-07-16T10:53:01;9.45;;;8.60;;
70588;SDS011;58152;49.202;18.744;2023-07-16T10:55:27;8.57;;;7.97;;
70588;SDS011;58152;49.202;18.744;2023-07-16T10:57:54;8.70;;;7.90;;
70588;SDS011;58152;49.202;18.744;2023-07-16T11:00:21;8.73;;;8.02;;
70588;SDS011;58152;49.202;18.744;2023-07-16T11:02:48;9.65;;;8.85;;
70588;SDS011;58152;49.202;18.744;2023-07-16T11:05:15;9.50;;;8.75;;
70588;SDS011;58152;49.202;18.744;2023-07-16T11:07:50;9.18;;;8.48;;
70588;SDS011;58152;49.202;18.744;2023-07-16T11:10:18;8.95;;;8.27;;
70588;SDS011;58152;49.202;18.744;2023-07-16T11:12:44;9.15;;;8.45;;
70588;SDS011;58152;49.202;18.744;2023-07-16T11:15:10;9.52;;;8.82;;
70588;SDS011;58152;49.202;18.744;2023-07-16T11:17:38;9.70;;;8.90;;
70588;SDS011;58152;49.202;18.744;2023-07-16T11:20:07;10.18;;;9.38;;
70588;SDS011;58152;49.202;18.744;2023-07-16T11:22:36;9.85;;;9.13;;
70588;SDS011;58152;49.202;18.744;2023-07-16T11:25:03;8.48;;;7.88;;
70588;SDS011;58152;49.202;18.744;2023-07-16T11:27:32;9.68;;;8.85;;
70588;SDS011;58152;49.202;18.744;2023-07-16T11:29:58;8.77;;;8.07;;
70588;SDS011;58152;49.202;18.744;2023-07-16T11:35:15;9.00;;;8.23;;
70588;SDS011;58152;49.202;18.744;2023-07-16T11:37:42;9.15;;;8.40;;
70588;SDS011;58152;49.202;18.744;2023-07-16T11:40:08;9.75;;;8.85;;
70588;SDS011;58152;49.202;18.744;2023-07-16T11:42:38;10.82;;;9.80;;
70588;SDS011;58152;49.202;18.744;2023-07-16T11:45:14;10.10;;;9.35;;
70588;SDS011;58152;49.202;18.744;2023-07-16T11:47:40;9.38;;;8.68;;
70588;SDS011;58152;49.202;18.744;2023-07-16T11:50:06;9.60;;;8.90;;
70588;SDS011;58152;49.202;18.744;2023-07-16T11:52:32;9.20;;;8.60;;
70588;SDS011;58152;49.202;18.744;2023-07-16T11:54:58;9.73;;;9.02;;
70588;SDS011;58152;49.202;18.744;2023-07-16T11:57:28;9.52;;;8.73;;
70588;SDS011;58152;49.202;18.744;2023-07-16T11:59:54;9.43;;;8.73;;
70588;SDS011;58152;49.202;18.744;2023-07-16T12:02:19;9.50;;;8.70;;
70588;SDS011;58152;49.202;18.744;2023-07-16T12:04:46;10.02;;;9.15;;
70588;SDS011;58152;49.202;18.744;2023-07-16T12:07:11;9.02;;;8.32;;
70588;SDS011;58152;49.202;18.744;2023-07-16T12:09:37;9.95;;;9.15;;
70588;SDS011;58152;49.202;18.744;2023-07-16T12:12:05;9.60;;;8.70;;
70588;SDS011;58152;49.202;18.744;2023-07-16T12:14:31;9.82;;;9.10;;
70588;SDS011;58152;49.202;18.744;2023-07-16T12:16:57;9.60;;;8.77;;
70588;SDS011;58152;49.202;18.744;2023-07-16T12:19:23;9.48;;;8.68;;
70588;SDS011;58152;49.202;18.744;2023-07-16T12:21:49;9.63;;;8.90;;
70588;SDS011;58152;49.202;18.744;2023-07-16T12:24:15;9.38;;;8.65;;
70588;SDS011;58152;49.202;18.744;2023-07-16T12:26:41;8.95;;;8.35;;
70588;SDS011;58152;49.202;18.744;2023-07-16T12:29:06;9.60;;;8.80;;
70588;SDS011;58152;49.202;18.744;2023-07-16T12:31:31;9.43;;;8.73;;
70588;SDS011;58152;49.202;18.744;2023-07-16T12:33:58;9.85;;;9.10;;
70588;SDS011;58152;49.202;18.744;2023-07-16T12:36:24;10.82;;;9.85;;
70588;SDS011;58152;49.202;18.744;2023-07-16T12:38:49;10.38;;;9.65;;
70588;SDS011;58152;49.202;18.744;2023-07-16T12:41:15;9.75;;;9.05;;
70588;SDS011;58152;49.202;18.744;2023-07-16T12:43:41;10.20;;;9.30;;
70588;SDS011;58152;49.202;18.744;2023-07-16T12:46:06;10.05;;;9.25;;
70588;SDS011;58152;49.202;18.744;2023-07-16T12:48:32;9.75;;;9.05;;
70588;SDS011;58152;49.202;18.744;2023-07-16T12:50:58;9.07;;;8.45;;
70588;SDS011;58152;49.202;18.744;2023-07-16T12:53:24;9.55;;;8.82;;
70588;SDS011;58152;49.202;18.744;2023-07-16T12:55:50;9.68;;;8.98;;
70588;SDS011;58152;49.202;18.744;2023-07-16T12:58:16;9.73;;;8.82;;
70588;SDS011;58152;49.202;18.744;2023-07-16T13:00:41;10.27;;;9.48;;
70588;SDS011;58152;49.202;18.744;2023-07-16T13:03:07;10.25;;;9.55;;
70588;SDS011;58152;49.202;18.744;2023-07-16T13:05:36;10.30;;;9.57;;
70588;SDS011;58152;49.202;18.744;2023-07-16T13:08:04;10.13;;;9.30;;
70588;SDS011;58152;49.202;18.744;2023-07-16T13:10:30;10.05;;;9.35;;
70588;SDS011;58152;49.202;18.744;2023-07-16T13:12:55;9.52;;;8.82;;
70588;SDS011;58152;49.202;18.744;2023-07-16T13:15:21;8.98;;;8.27;;
70588;SDS011;58152;49.202;18.744;2023-07-16T13:17:46;9.02;;;8.43;;
70588;SDS011;58152;49.202;18.744;2023-07-16T13:20:13;9.23;;;8.52;;
70588;SDS011;58152;49.202;18.744;2023-07-16T13:22:38;9.13;;;8.45;;
70588;SDS011;58152;49.202;18.744;2023-07-16T13:25:04;10.27;;;9.48;;
70588;SDS011;58152;49.202;18.744;2023-07-16T13:27:29;10.52;;;9.65;;
70588;SDS011;58152;49.202;18.744;2023-07-16T13:29:55;11.35;;;10.35;;
70588;SDS011;58152;49.202;18.744;2023-07-16T13:32:20;10.77;;;9.98;;
70588;SDS011;58152;49.202;18.744;2023-07-16T13:34:46;10.30;;;9.60;;
70588;SDS011;58152;49.202;18.744;2023-07-16T13:37:11;10.02;;;9.32;;
70588;SDS011;58152;49.202;18.744;2023-07-16T13:39:36;8.93;;;8.23;;
70588;SDS011;58152;49.202;18.744;2023-07-16T13:42:02;9.68;;;8.90;;
70588;SDS011;58152;49.202;18.744;2023-07-16T13:44:28;9.60;;;8.90;;
70588;SDS011;58152;49.202;18.744;2023-07-16T13:46:53;8.77;;;8.15;;
70588;SDS011;58152;49.202;18.744;2023-07-16T13:49:19;8.82;;;8.13;;
70588;SDS011;58152;49.202;18.744;2023-07-16T13:51:44;8.65;;;8.05;;
70588;SDS011;58152;49.202;18.744;2023-07-16T13:54:11;8.57;;;7.88;;
70588;SDS011;58152;49.202;18.744;2023-07-16T13:56:37;8.52;;;7.93;;
70588;SDS011;58152;49.202;18.744;2023-07-16T13:59:04;8.30;;;7.70;;
70588;SDS011;58152;49.202;18.744;2023-07-16T14:01:30;8.75;;;8.07;;
70588;SDS011;58152;49.202;18.744;2023-07-16T14:03:55;8.75;;;7.88;;
70588;SDS011;58152;49.202;18.744;2023-07-16T14:06:21;8.07;;;7.43;;
70588;SDS011;58152;49.202;18.744;2023-07-16T14:08:46;8.35;;;7.75;;
70588;SDS011;58152;49.202;18.744;2023-07-16T14:11:12;8.25;;;7.55;;
70588;SDS011;58152;49.202;18.744;2023-07-16T14:13:37;8.35;;;7.75;;
70588;SDS011;58152;49.202;18.744;2023-07-16T14:16:02;8.63;;;7.70;;
70588;SDS011;58152;49.202;18.744;2023-07-16T14:18:28;7.75;;;7.25;;
70588;SDS011;58152;49.202;18.744;2023-07-16T14:20:54;8.07;;;7.38;;
70588;SDS011;58152;49.202;18.744;2023-07-16T14:23:19;7.55;;;6.95;;
70588;SDS011;58152;49.202;18.744;2023-07-16T14:25:45;8.35;;;7.65;;
70588;SDS011;58152;49.202;18.744;2023-07-16T14:28:10;7.78;;;7.18;;
70588;SDS011;58152;49.202;18.744;2023-07-16T14:30:35;8.10;;;7.50;;
70588;SDS011;58152;49.202;18.744;2023-07-16T14:33:01;8.20;;;7.57;;
70588;SDS011;58152;49.202;18.744;2023-07-16T14:35:29;8.32;;;7.72;;
70588;SDS011;58152;49.202;18.744;2023-07-16T14:37:54;8.25;;;7.57;;
70588;SDS011;58152;49.202;18.744;2023-07-16T14:40:20;8.75;;;8.05;;